Terminal Aerodrome Forecast
Issued by NWS Charleston, WV

Current Version | Previous Version | Text Only | Print | Product List | Glossary Off
Versions: 1 2 3 4 5 6 7 8 9 10 11 12 13 14 15 16 17 18 19 20 21 22 23 24 25 26 27 28 29 30

691
FTUS41 KRLX 211927 AAB
TAFEKN
TAF AMD
KEKN 211927Z 2119/2218 VRB03KT 3SM -RA OVC015
     FM212000 29004KT P6SM BKN015
     FM212200 30005KT P6SM BKN025
     FM220600 29004KT P6SM BKN030
     FM220700 29004KT P6SM SCT025
     FM221200 28008KT P6SM FEW040
     FM221500 28012KT P6SM FEW150=

USA.gov is the U.S. government's official web portal to all federal, state and local government web resources and services.